Bergman, Arkansas
Current Conditions -  °F | °C
As of 7:53 AM on Tuesday 27 Jan 2015 (Local Time) from KHRO Reporting Station
Clear Clear  
Wind Chill: 40°   Ceiling: Unl
Heat Index: 43°   Visibility: 10mi
Dew Point: 33°   Wind: 5mph
Humidity: 68%   Direction: 290°WNW
Pressure: 30.13"   Gusts: NA
Location:  36.32°N, 93.01°W
Report Text: KHRO 271353Z AUTO 29004KT 10SM CLR 06/01 A3013 RMK AO2 SLP204 T00610006
Loading
Personal Weather Stations






























Interactive Weather Map New forecast layout! Learn more

10-Day Weather Forecast

Advertisements
Track Severe Weather on mobile